sensor_id;sensor_type;location;lat;lon;timestamp;P1;durP1;ratioP1;P2;durP2;ratioP2
51489;SDS011;57752;53.574;9.736;2023-05-29T00:00:13;15.37;;;4.53;;
51489;SDS011;57752;53.574;9.736;2023-05-29T00:05:16;17.67;;;4.30;;
51489;SDS011;57752;53.574;9.736;2023-05-29T00:10:16;16.33;;;3.90;;
51489;SDS011;57752;53.574;9.736;2023-05-29T00:15:17;20.13;;;4.43;;
51489;SDS011;57752;53.574;9.736;2023-05-29T00:20:17;16.45;;;4.13;;
51489;SDS011;57752;53.574;9.736;2023-05-29T00:25:18;18.40;;;5.28;;
51489;SDS011;57752;53.574;9.736;2023-05-29T00:30:18;16.83;;;4.07;;
51489;SDS011;57752;53.574;9.736;2023-05-29T00:35:18;19.85;;;4.35;;
51489;SDS011;57752;53.574;9.736;2023-05-29T00:40:19;19.25;;;4.47;;
51489;SDS011;57752;53.574;9.736;2023-05-29T00:45:19;20.00;;;5.07;;
51489;SDS011;57752;53.574;9.736;2023-05-29T00:50:20;22.63;;;4.07;;
51489;SDS011;57752;53.574;9.736;2023-05-29T00:55:21;19.15;;;4.50;;
51489;SDS011;57752;53.574;9.736;2023-05-29T01:00:21;15.02;;;3.83;;
51489;SDS011;57752;53.574;9.736;2023-05-29T01:05:22;19.77;;;4.03;;
51489;SDS011;57752;53.574;9.736;2023-05-29T01:10:22;21.60;;;4.88;;
51489;SDS011;57752;53.574;9.736;2023-05-29T01:15:25;23.27;;;5.07;;
51489;SDS011;57752;53.574;9.736;2023-05-29T01:31:01;19.95;;;4.47;;
51489;SDS011;57752;53.574;9.736;2023-05-29T01:36:03;14.70;;;3.92;;
51489;SDS011;57752;53.574;9.736;2023-05-29T01:41:03;19.90;;;4.00;;
51489;SDS011;57752;53.574;9.736;2023-05-29T01:46:04;17.05;;;4.70;;
51489;SDS011;57752;53.574;9.736;2023-05-29T01:51:04;19.98;;;4.47;;
51489;SDS011;57752;53.574;9.736;2023-05-29T01:56:05;24.60;;;3.85;;
51489;SDS011;57752;53.574;9.736;2023-05-29T02:01:06;15.15;;;3.97;;
51489;SDS011;57752;53.574;9.736;2023-05-29T02:06:07;21.17;;;4.15;;
51489;SDS011;57752;53.574;9.736;2023-05-29T02:11:07;15.75;;;4.03;;
51489;SDS011;57752;53.574;9.736;2023-05-29T02:16:07;16.57;;;3.93;;
51489;SDS011;57752;53.574;9.736;2023-05-29T02:21:08;18.23;;;4.45;;
51489;SDS011;57752;53.574;9.736;2023-05-29T02:26:08;16.40;;;4.25;;
51489;SDS011;57752;53.574;9.736;2023-05-29T02:31:09;19.05;;;3.55;;
51489;SDS011;57752;53.574;9.736;2023-05-29T02:36:09;19.10;;;4.37;;
51489;SDS011;57752;53.574;9.736;2023-05-29T02:41:11;18.37;;;4.23;;
51489;SDS011;57752;53.574;9.736;2023-05-29T02:46:11;20.55;;;3.92;;
51489;SDS011;57752;53.574;9.736;2023-05-29T02:51:12;23.33;;;4.43;;
51489;SDS011;57752;53.574;9.736;2023-05-29T02:56:12;20.13;;;4.18;;
51489;SDS011;57752;53.574;9.736;2023-05-29T03:01:12;20.38;;;3.90;;
51489;SDS011;57752;53.574;9.736;2023-05-29T03:06:13;20.17;;;4.18;;
51489;SDS011;57752;53.574;9.736;2023-05-29T03:11:13;16.02;;;3.50;;
51489;SDS011;57752;53.574;9.736;2023-05-29T03:16:15;32.72;;;4.78;;
51489;SDS011;57752;53.574;9.736;2023-05-29T03:21:15;13.37;;;3.63;;
51489;SDS011;57752;53.574;9.736;2023-05-29T03:26:15;21.27;;;4.40;;
51489;SDS011;57752;53.574;9.736;2023-05-29T03:31:16;19.63;;;4.65;;
51489;SDS011;57752;53.574;9.736;2023-05-29T03:36:16;23.27;;;4.83;;
51489;SDS011;57752;53.574;9.736;2023-05-29T03:41:19;18.45;;;4.88;;
51489;SDS011;57752;53.574;9.736;2023-05-29T03:46:20;17.70;;;4.13;;
51489;SDS011;57752;53.574;9.736;2023-05-29T03:51:20;18.73;;;4.00;;
51489;SDS011;57752;53.574;9.736;2023-05-29T03:56:20;18.30;;;3.70;;
51489;SDS011;57752;53.574;9.736;2023-05-29T04:01:21;17.90;;;3.53;;
51489;SDS011;57752;53.574;9.736;2023-05-29T04:06:22;16.65;;;3.50;;
51489;SDS011;57752;53.574;9.736;2023-05-29T04:11:22;18.50;;;4.60;;
51489;SDS011;57752;53.574;9.736;2023-05-29T04:16:22;15.88;;;4.20;;
51489;SDS011;57752;53.574;9.736;2023-05-29T04:21:23;20.77;;;4.07;;
51489;SDS011;57752;53.574;9.736;2023-05-29T04:26:23;25.15;;;5.32;;
51489;SDS011;57752;53.574;9.736;2023-05-29T04:31:26;23.60;;;4.43;;
51489;SDS011;57752;53.574;9.736;2023-05-29T04:36:27;20.33;;;4.32;;
51489;SDS011;57752;53.574;9.736;2023-05-29T04:41:28;17.83;;;4.32;;
51489;SDS011;57752;53.574;9.736;2023-05-29T04:46:31;18.15;;;4.25;;
51489;SDS011;57752;53.574;9.736;2023-05-29T04:51:31;19.75;;;4.40;;
51489;SDS011;57752;53.574;9.736;2023-05-29T04:56:31;23.13;;;4.45;;
51489;SDS011;57752;53.574;9.736;2023-05-29T05:01:32;24.00;;;4.70;;
51489;SDS011;57752;53.574;9.736;2023-05-29T05:06:33;16.80;;;4.35;;
51489;SDS011;57752;53.574;9.736;2023-05-29T05:11:33;17.73;;;4.20;;
51489;SDS011;57752;53.574;9.736;2023-05-29T05:16:34;22.70;;;4.37;;
51489;SDS011;57752;53.574;9.736;2023-05-29T05:21:34;18.92;;;4.30;;
51489;SDS011;57752;53.574;9.736;2023-05-29T05:26:35;20.48;;;4.03;;
51489;SDS011;57752;53.574;9.736;2023-05-29T05:31:35;24.38;;;4.60;;
51489;SDS011;57752;53.574;9.736;2023-05-29T05:36:35;21.33;;;4.67;;
51489;SDS011;57752;53.574;9.736;2023-05-29T05:41:36;20.05;;;4.22;;
51489;SDS011;57752;53.574;9.736;2023-05-29T05:46:37;21.92;;;4.80;;
51489;SDS011;57752;53.574;9.736;2023-05-29T05:51:37;23.27;;;4.65;;
51489;SDS011;57752;53.574;9.736;2023-05-29T05:56:37;21.17;;;4.50;;
51489;SDS011;57752;53.574;9.736;2023-05-29T06:01:37;23.27;;;4.22;;
51489;SDS011;57752;53.574;9.736;2023-05-29T06:06:38;25.67;;;4.88;;
51489;SDS011;57752;53.574;9.736;2023-05-29T06:11:39;19.10;;;4.55;;
51489;SDS011;57752;53.574;9.736;2023-05-29T06:16:40;17.25;;;4.38;;
51489;SDS011;57752;53.574;9.736;2023-05-29T06:21:40;15.48;;;4.20;;
51489;SDS011;57752;53.574;9.736;2023-05-29T06:26:40;20.95;;;4.60;;
51489;SDS011;57752;53.574;9.736;2023-05-29T06:31:41;21.07;;;4.63;;
51489;SDS011;57752;53.574;9.736;2023-05-29T06:36:41;18.92;;;4.32;;
51489;SDS011;57752;53.574;9.736;2023-05-29T06:41:41;22.35;;;5.03;;
51489;SDS011;57752;53.574;9.736;2023-05-29T06:46:42;18.98;;;4.53;;
51489;SDS011;57752;53.574;9.736;2023-05-29T06:51:43;20.92;;;4.93;;
51489;SDS011;57752;53.574;9.736;2023-05-29T06:56:44;18.87;;;4.43;;
51489;SDS011;57752;53.574;9.736;2023-05-29T07:01:44;18.55;;;4.00;;
51489;SDS011;57752;53.574;9.736;2023-05-29T07:06:44;20.13;;;3.80;;
51489;SDS011;57752;53.574;9.736;2023-05-29T07:11:45;21.70;;;4.53;;
51489;SDS011;57752;53.574;9.736;2023-05-29T07:16:45;19.10;;;4.40;;
51489;SDS011;57752;53.574;9.736;2023-05-29T07:21:46;24.20;;;4.80;;
51489;SDS011;57752;53.574;9.736;2023-05-29T07:26:46;27.43;;;4.67;;
51489;SDS011;57752;53.574;9.736;2023-05-29T07:31:46;15.80;;;4.10;;
51489;SDS011;57752;53.574;9.736;2023-05-29T07:37:00;24.10;;;4.47;;
51489;SDS011;57752;53.574;9.736;2023-05-29T07:42:02;20.50;;;4.65;;
51489;SDS011;57752;53.574;9.736;2023-05-29T07:47:02;19.73;;;4.70;;
51489;SDS011;57752;53.574;9.736;2023-05-29T07:52:03;19.63;;;4.70;;
51489;SDS011;57752;53.574;9.736;2023-05-29T07:57:03;21.77;;;4.43;;
51489;SDS011;57752;53.574;9.736;2023-05-29T08:02:09;20.67;;;4.38;;
51489;SDS011;57752;53.574;9.736;2023-05-29T08:07:09;22.58;;;4.45;;
51489;SDS011;57752;53.574;9.736;2023-05-29T08:12:10;21.23;;;4.32;;
51489;SDS011;57752;53.574;9.736;2023-05-29T08:17:10;17.77;;;4.20;;
51489;SDS011;57752;53.574;9.736;2023-05-29T08:22:12;26.77;;;4.87;;
51489;SDS011;57752;53.574;9.736;2023-05-29T08:27:12;19.53;;;4.50;;
51489;SDS011;57752;53.574;9.736;2023-05-29T08:32:13;19.45;;;4.45;;
51489;SDS011;57752;53.574;9.736;2023-05-29T08:37:13;20.27;;;4.07;;
51489;SDS011;57752;53.574;9.736;2023-05-29T08:42:18;20.57;;;4.73;;
51489;SDS011;57752;53.574;9.736;2023-05-29T08:47:21;17.50;;;4.45;;
51489;SDS011;57752;53.574;9.736;2023-05-29T08:52:23;17.58;;;4.10;;
51489;SDS011;57752;53.574;9.736;2023-05-29T08:57:27;16.90;;;3.90;;
51489;SDS011;57752;53.574;9.736;2023-05-29T09:02:28;18.37;;;3.90;;
51489;SDS011;57752;53.574;9.736;2023-05-29T09:07:29;21.88;;;4.25;;
51489;SDS011;57752;53.574;9.736;2023-05-29T09:12:31;16.27;;;4.28;;
51489;SDS011;57752;53.574;9.736;2023-05-29T09:17:31;17.67;;;4.28;;
51489;SDS011;57752;53.574;9.736;2023-05-29T09:22:35;16.13;;;4.53;;
51489;SDS011;57752;53.574;9.736;2023-05-29T09:27:38;19.15;;;4.00;;
51489;SDS011;57752;53.574;9.736;2023-05-29T09:32:39;19.80;;;4.57;;
51489;SDS011;57752;53.574;9.736;2023-05-29T09:37:41;19.55;;;4.72;;
51489;SDS011;57752;53.574;9.736;2023-05-29T09:42:42;20.10;;;4.43;;
51489;SDS011;57752;53.574;9.736;2023-05-29T09:47:42;20.02;;;4.50;;
51489;SDS011;57752;53.574;9.736;2023-05-29T09:52:42;20.00;;;4.53;;
51489;SDS011;57752;53.574;9.736;2023-05-29T09:57:44;19.27;;;4.90;;
51489;SDS011;57752;53.574;9.736;2023-05-29T10:02:49;18.38;;;4.60;;
51489;SDS011;57752;53.574;9.736;2023-05-29T10:07:50;18.38;;;4.75;;
51489;SDS011;57752;53.574;9.736;2023-05-29T10:17:56;19.10;;;4.15;;
51489;SDS011;57752;53.574;9.736;2023-05-29T10:23:00;20.58;;;4.80;;
51489;SDS011;57752;53.574;9.736;2023-05-29T10:28:01;21.05;;;4.40;;
51489;SDS011;57752;53.574;9.736;2023-05-29T10:38:15;19.05;;;4.40;;
51489;SDS011;57752;53.574;9.736;2023-05-29T10:48:35;21.25;;;4.40;;
51489;SDS011;57752;53.574;9.736;2023-05-29T10:53:36;19.98;;;4.30;;
51489;SDS011;57752;53.574;9.736;2023-05-29T10:58:40;18.27;;;4.50;;
51489;SDS011;57752;53.574;9.736;2023-05-29T11:03:41;17.25;;;4.40;;
51489;SDS011;57752;53.574;9.736;2023-05-29T11:08:43;17.25;;;4.50;;
51489;SDS011;57752;53.574;9.736;2023-05-29T11:13:51;16.38;;;4.30;;
51489;SDS011;57752;53.574;9.736;2023-05-29T11:18:53;14.63;;;3.72;;
51489;SDS011;57752;53.574;9.736;2023-05-29T11:23:53;14.98;;;3.38;;
51489;SDS011;57752;53.574;9.736;2023-05-29T11:28:57;13.93;;;3.78;;
51489;SDS011;57752;53.574;9.736;2023-05-29T11:33:59;15.93;;;4.20;;
51489;SDS011;57752;53.574;9.736;2023-05-29T11:39:03;17.00;;;4.07;;
51489;SDS011;57752;53.574;9.736;2023-05-29T11:44:03;14.30;;;3.75;;
51489;SDS011;57752;53.574;9.736;2023-05-29T11:49:05;15.00;;;3.83;;
51489;SDS011;57752;53.574;9.736;2023-05-29T11:54:06;19.67;;;4.35;;
51489;SDS011;57752;53.574;9.736;2023-05-29T11:59:10;14.88;;;3.85;;
51489;SDS011;57752;53.574;9.736;2023-05-29T12:04:14;15.00;;;3.70;;
51489;SDS011;57752;53.574;9.736;2023-05-29T12:09:25;14.77;;;3.50;;
51489;SDS011;57752;53.574;9.736;2023-05-29T12:14:28;12.40;;;3.40;;
51489;SDS011;57752;53.574;9.736;2023-05-29T12:19:28;13.67;;;3.37;;
51489;SDS011;57752;53.574;9.736;2023-05-29T12:24:29;15.77;;;3.85;;
51489;SDS011;57752;53.574;9.736;2023-05-29T12:29:32;19.08;;;3.95;;
51489;SDS011;57752;53.574;9.736;2023-05-29T12:34:36;17.20;;;3.92;;
51489;SDS011;57752;53.574;9.736;2023-05-29T12:39:36;16.70;;;4.15;;
51489;SDS011;57752;53.574;9.736;2023-05-29T12:44:37;18.48;;;3.97;;
51489;SDS011;57752;53.574;9.736;2023-05-29T12:49:38;15.65;;;3.47;;
51489;SDS011;57752;53.574;9.736;2023-05-29T12:54:38;16.15;;;3.50;;
51489;SDS011;57752;53.574;9.736;2023-05-29T12:59:39;16.48;;;4.00;;
51489;SDS011;57752;53.574;9.736;2023-05-29T13:04:40;15.98;;;4.10;;
51489;SDS011;57752;53.574;9.736;2023-05-29T13:09:40;14.52;;;3.72;;
51489;SDS011;57752;53.574;9.736;2023-05-29T13:14:40;13.85;;;3.40;;
51489;SDS011;57752;53.574;9.736;2023-05-29T13:19:41;17.60;;;4.35;;
51489;SDS011;57752;53.574;9.736;2023-05-29T13:24:41;15.05;;;3.85;;
51489;SDS011;57752;53.574;9.736;2023-05-29T13:29:42;14.57;;;3.45;;
51489;SDS011;57752;53.574;9.736;2023-05-29T13:34:43;13.95;;;3.83;;
51489;SDS011;57752;53.574;9.736;2023-05-29T13:39:43;14.27;;;4.15;;
51489;SDS011;57752;53.574;9.736;2023-05-29T13:44:44;14.30;;;3.42;;
51489;SDS011;57752;53.574;9.736;2023-05-29T13:49:44;15.77;;;3.50;;
51489;SDS011;57752;53.574;9.736;2023-05-29T13:54:45;16.88;;;3.60;;
51489;SDS011;57752;53.574;9.736;2023-05-29T13:59:45;14.38;;;3.50;;
51489;SDS011;57752;53.574;9.736;2023-05-29T14:04:46;10.93;;;3.13;;
51489;SDS011;57752;53.574;9.736;2023-05-29T14:09:46;15.70;;;3.92;;
51489;SDS011;57752;53.574;9.736;2023-05-29T14:14:46;13.88;;;3.30;;
51489;SDS011;57752;53.574;9.736;2023-05-29T14:19:46;14.90;;;3.55;;
51489;SDS011;57752;53.574;9.736;2023-05-29T14:24:47;17.25;;;3.58;;
51489;SDS011;57752;53.574;9.736;2023-05-29T14:29:47;12.17;;;3.00;;
51489;SDS011;57752;53.574;9.736;2023-05-29T14:34:48;15.85;;;3.28;;
51489;SDS011;57752;53.574;9.736;2023-05-29T14:39:48;14.03;;;3.60;;
51489;SDS011;57752;53.574;9.736;2023-05-29T14:44:48;13.10;;;3.25;;
51489;SDS011;57752;53.574;9.736;2023-05-29T14:49:49;14.50;;;3.75;;
51489;SDS011;57752;53.574;9.736;2023-05-29T14:54:49;18.23;;;3.70;;
51489;SDS011;57752;53.574;9.736;2023-05-29T14:59:49;17.98;;;3.60;;
51489;SDS011;57752;53.574;9.736;2023-05-29T15:04:50;13.35;;;3.42;;
51489;SDS011;57752;53.574;9.736;2023-05-29T15:09:51;13.73;;;3.60;;
51489;SDS011;57752;53.574;9.736;2023-05-29T15:14:51;16.50;;;3.60;;
51489;SDS011;57752;53.574;9.736;2023-05-29T15:19:52;15.43;;;3.60;;
51489;SDS011;57752;53.574;9.736;2023-05-29T15:24:52;15.15;;;3.60;;
51489;SDS011;57752;53.574;9.736;2023-05-29T15:29:52;13.30;;;3.17;;
51489;SDS011;57752;53.574;9.736;2023-05-29T15:34:53;14.32;;;3.78;;
51489;SDS011;57752;53.574;9.736;2023-05-29T15:39:55;13.30;;;3.55;;
51489;SDS011;57752;53.574;9.736;2023-05-29T15:44:55;12.48;;;3.20;;
51489;SDS011;57752;53.574;9.736;2023-05-29T15:49:56;13.73;;;3.75;;
51489;SDS011;57752;53.574;9.736;2023-05-29T15:54:57;14.02;;;3.70;;
51489;SDS011;57752;53.574;9.736;2023-05-29T15:59:57;18.60;;;3.50;;
51489;SDS011;57752;53.574;9.736;2023-05-29T16:04:57;19.42;;;3.78;;
51489;SDS011;57752;53.574;9.736;2023-05-29T16:09:58;18.27;;;3.97;;
51489;SDS011;57752;53.574;9.736;2023-05-29T16:14:58;18.83;;;3.77;;
51489;SDS011;57752;53.574;9.736;2023-05-29T16:19:58;16.20;;;3.90;;
51489;SDS011;57752;53.574;9.736;2023-05-29T16:24:59;16.10;;;3.50;;
51489;SDS011;57752;53.574;9.736;2023-05-29T16:30:00;18.57;;;3.73;;
51489;SDS011;57752;53.574;9.736;2023-05-29T16:35:00;19.30;;;4.22;;
51489;SDS011;57752;53.574;9.736;2023-05-29T16:40:01;17.00;;;3.88;;
51489;SDS011;57752;53.574;9.736;2023-05-29T16:45:02;14.00;;;3.38;;
51489;SDS011;57752;53.574;9.736;2023-05-29T16:50:03;16.02;;;3.67;;
51489;SDS011;57752;53.574;9.736;2023-05-29T16:55:04;15.60;;;3.85;;
51489;SDS011;57752;53.574;9.736;2023-05-29T17:00:05;16.48;;;3.47;;
51489;SDS011;57752;53.574;9.736;2023-05-29T17:05:06;13.85;;;3.22;;
51489;SDS011;57752;53.574;9.736;2023-05-29T17:10:06;13.88;;;3.10;;
51489;SDS011;57752;53.574;9.736;2023-05-29T17:15:09;13.02;;;3.20;;
51489;SDS011;57752;53.574;9.736;2023-05-29T17:20:09;14.48;;;3.50;;
51489;SDS011;57752;53.574;9.736;2023-05-29T17:25:11;13.30;;;3.30;;
51489;SDS011;57752;53.574;9.736;2023-05-29T17:30:11;12.70;;;3.20;;
51489;SDS011;57752;53.574;9.736;2023-05-29T17:35:13;13.45;;;3.17;;
51489;SDS011;57752;53.574;9.736;2023-05-29T17:40:13;12.47;;;3.20;;
51489;SDS011;57752;53.574;9.736;2023-05-29T17:45:13;15.23;;;2.93;;
51489;SDS011;57752;53.574;9.736;2023-05-29T17:50:14;11.50;;;3.00;;
51489;SDS011;57752;53.574;9.736;2023-05-29T17:55:15;14.00;;;2.97;;
51489;SDS011;57752;53.574;9.736;2023-05-29T18:00:15;10.17;;;2.47;;
51489;SDS011;57752;53.574;9.736;2023-05-29T18:05:17;11.00;;;3.15;;
51489;SDS011;57752;53.574;9.736;2023-05-29T18:10:17;12.50;;;3.17;;
51489;SDS011;57752;53.574;9.736;2023-05-29T18:15:21;14.32;;;2.83;;
51489;SDS011;57752;53.574;9.736;2023-05-29T18:20:22;13.45;;;3.10;;
51489;SDS011;57752;53.574;9.736;2023-05-29T18:25:28;16.40;;;3.30;;
51489;SDS011;57752;53.574;9.736;2023-05-29T18:30:28;16.58;;;3.38;;
51489;SDS011;57752;53.574;9.736;2023-05-29T18:35:28;13.55;;;3.80;;
51489;SDS011;57752;53.574;9.736;2023-05-29T18:40:29;12.95;;;3.17;;
51489;SDS011;57752;53.574;9.736;2023-05-29T18:45:29;16.48;;;3.55;;
51489;SDS011;57752;53.574;9.736;2023-05-29T18:50:30;14.10;;;3.35;;
51489;SDS011;57752;53.574;9.736;2023-05-29T18:55:30;14.65;;;3.83;;
51489;SDS011;57752;53.574;9.736;2023-05-29T19:00:31;18.73;;;3.80;;
51489;SDS011;57752;53.574;9.736;2023-05-29T19:05:32;16.00;;;3.90;;
51489;SDS011;57752;53.574;9.736;2023-05-29T19:10:35;17.98;;;4.43;;
51489;SDS011;57752;53.574;9.736;2023-05-29T19:15:37;24.87;;;4.37;;
51489;SDS011;57752;53.574;9.736;2023-05-29T19:20:37;16.77;;;4.43;;
51489;SDS011;57752;53.574;9.736;2023-05-29T19:25:38;19.23;;;4.27;;
51489;SDS011;57752;53.574;9.736;2023-05-29T19:30:38;20.60;;;4.57;;
51489;SDS011;57752;53.574;9.736;2023-05-29T19:35:38;23.75;;;5.18;;
51489;SDS011;57752;53.574;9.736;2023-05-29T19:40:39;20.30;;;5.10;;
51489;SDS011;57752;53.574;9.736;2023-05-29T19:45:39;21.50;;;5.20;;
51489;SDS011;57752;53.574;9.736;2023-05-29T19:50:40;18.05;;;4.40;;
51489;SDS011;57752;53.574;9.736;2023-05-29T19:55:40;18.77;;;4.20;;
51489;SDS011;57752;53.574;9.736;2023-05-29T20:00:40;24.67;;;5.45;;
51489;SDS011;57752;53.574;9.736;2023-05-29T20:05:41;25.35;;;5.35;;
51489;SDS011;57752;53.574;9.736;2023-05-29T20:10:42;19.85;;;4.75;;
51489;SDS011;57752;53.574;9.736;2023-05-29T20:15:42;19.52;;;4.68;;
51489;SDS011;57752;53.574;9.736;2023-05-29T20:20:43;17.40;;;4.72;;
51489;SDS011;57752;53.574;9.736;2023-05-29T20:25:43;21.55;;;5.25;;
51489;SDS011;57752;53.574;9.736;2023-05-29T20:30:43;21.93;;;5.40;;
51489;SDS011;57752;53.574;9.736;2023-05-29T20:35:44;25.88;;;5.95;;
51489;SDS011;57752;53.574;9.736;2023-05-29T20:40:45;22.42;;;4.93;;
51489;SDS011;57752;53.574;9.736;2023-05-29T20:45:49;22.67;;;5.47;;
51489;SDS011;57752;53.574;9.736;2023-05-29T20:50:51;20.58;;;5.10;;
51489;SDS011;57752;53.574;9.736;2023-05-29T20:55:51;23.75;;;6.57;;
51489;SDS011;57752;53.574;9.736;2023-05-29T21:00:52;22.50;;;5.40;;
51489;SDS011;57752;53.574;9.736;2023-05-29T21:05:52;27.13;;;5.50;;
51489;SDS011;57752;53.574;9.736;2023-05-29T21:10:52;26.48;;;5.20;;
51489;SDS011;57752;53.574;9.736;2023-05-29T21:15:53;22.98;;;5.53;;
51489;SDS011;57752;53.574;9.736;2023-05-29T21:20:53;20.65;;;5.13;;
51489;SDS011;57752;53.574;9.736;2023-05-29T21:25:54;25.10;;;5.55;;
51489;SDS011;57752;53.574;9.736;2023-05-29T21:30:54;25.52;;;5.10;;
51489;SDS011;57752;53.574;9.736;2023-05-29T21:35:55;24.92;;;6.75;;
51489;SDS011;57752;53.574;9.736;2023-05-29T21:40:55;17.25;;;5.03;;
51489;SDS011;57752;53.574;9.736;2023-05-29T21:45:56;25.38;;;5.35;;
51489;SDS011;57752;53.574;9.736;2023-05-29T21:50:56;20.57;;;5.93;;
51489;SDS011;57752;53.574;9.736;2023-05-29T21:55:56;21.45;;;5.45;;
51489;SDS011;57752;53.574;9.736;2023-05-29T22:00:57;21.85;;;5.35;;
51489;SDS011;57752;53.574;9.736;2023-05-29T22:05:57;21.45;;;6.20;;
51489;SDS011;57752;53.574;9.736;2023-05-29T22:10:58;23.30;;;5.63;;
51489;SDS011;57752;53.574;9.736;2023-05-29T22:15:59;22.47;;;5.67;;
51489;SDS011;57752;53.574;9.736;2023-05-29T22:20:59;21.48;;;5.78;;
51489;SDS011;57752;53.574;9.736;2023-05-29T22:26:04;21.88;;;4.78;;
51489;SDS011;57752;53.574;9.736;2023-05-29T22:31:04;20.80;;;5.80;;
51489;SDS011;57752;53.574;9.736;2023-05-29T22:36:05;20.50;;;5.22;;
51489;SDS011;57752;53.574;9.736;2023-05-29T22:41:06;21.75;;;5.75;;
51489;SDS011;57752;53.574;9.736;2023-05-29T22:46:07;18.98;;;5.55;;
51489;SDS011;57752;53.574;9.736;2023-05-29T22:51:07;22.73;;;5.22;;
51489;SDS011;57752;53.574;9.736;2023-05-29T22:56:08;26.85;;;5.18;;
51489;SDS011;57752;53.574;9.736;2023-05-29T23:01:08;20.30;;;5.50;;
51489;SDS011;57752;53.574;9.736;2023-05-29T23:06:09;24.75;;;6.15;;
51489;SDS011;57752;53.574;9.736;2023-05-29T23:11:11;24.25;;;5.65;;
51489;SDS011;57752;53.574;9.736;2023-05-29T23:16:11;22.00;;;5.77;;
51489;SDS011;57752;53.574;9.736;2023-05-29T23:21:12;20.92;;;5.45;;
51489;SDS011;57752;53.574;9.736;2023-05-29T23:26:12;14.73;;;5.00;;
51489;SDS011;57752;53.574;9.736;2023-05-29T23:31:12;29.73;;;5.53;;
51489;SDS011;57752;53.574;9.736;2023-05-29T23:36:13;20.38;;;5.43;;
51489;SDS011;57752;53.574;9.736;2023-05-29T23:41:13;21.83;;;4.90;;
51489;SDS011;57752;53.574;9.736;2023-05-29T23:46:14;21.02;;;4.97;;
51489;SDS011;57752;53.574;9.736;2023-05-29T23:51:14;16.20;;;4.90;;
51489;SDS011;57752;53.574;9.736;2023-05-29T23:56:14;18.85;;;4.90;;
